createdAt,value
2023-05-19T02:57:51.678Z,11.65
2023-05-19T05:11:08.336Z,17.75
2023-05-19T05:13:35.495Z,18.45
2023-05-19T05:16:04.889Z,17.38
2023-05-19T05:18:33.081Z,15.85
2023-05-19T05:23:36.113Z,17.58
2023-05-19T05:26:10.126Z,17.05
2023-05-19T05:28:37.317Z,19.45
2023-05-19T06:14:10.650Z,15.77
2023-05-19T06:16:37.781Z,14.98
2023-05-19T06:19:04.903Z,14.10
2023-05-19T06:21:31.875Z,16.50
2023-05-19T06:23:59.041Z,15.95
2023-05-19T06:26:26.651Z,16.15
2023-05-19T06:28:53.718Z,15.73
2023-05-19T06:33:56.306Z,18.27
2023-05-19T06:36:23.280Z,17.58
2023-05-19T06:38:50.138Z,17.40
2023-05-19T06:41:17.537Z,18.08
2023-05-19T06:43:44.420Z,18.65
2023-05-19T06:46:13.226Z,19.23
2023-05-19T06:48:40.210Z,18.40
2023-05-19T06:53:42.514Z,21.08
2023-05-19T06:58:51.829Z,19.55
2023-05-19T07:21:07.699Z,19.98
2023-05-19T07:23:35.266Z,20.88
2023-05-19T07:26:02.568Z,19.80
2023-05-19T07:28:30.130Z,22.60
2023-05-19T07:31:00.573Z,17.77
2023-05-19T07:42:37.085Z,19.13
2023-05-19T07:45:04.580Z,17.15
2023-05-19T07:55:31.176Z,17.40
2023-05-19T08:03:57.161Z,16.73
2023-05-19T08:06:25.476Z,16.40
2023-05-19T08:11:28.327Z,16.50
2023-05-19T08:16:35.031Z,15.82
2023-05-19T08:21:37.610Z,17.15
2023-05-19T08:24:08.201Z,17.73
2023-05-19T08:26:37.645Z,16.00
2023-05-19T08:40:49.579Z,15.10
2023-05-19T08:45:57.167Z,16.75
2023-05-19T09:41:06.582Z,17.73
2023-05-19T09:46:17.187Z,16.83
2023-05-19T09:49:16.095Z,17.02
2023-05-19T09:51:44.518Z,19.33
2023-05-19T09:54:17.055Z,20.63
2023-05-19T09:59:41.297Z,20.90
2023-05-19T10:02:16.046Z,20.50
2023-05-19T10:07:18.134Z,20.55
2023-05-19T10:09:46.299Z,20.35
2023-05-19T10:12:13.856Z,20.38
2023-05-19T10:14:41.028Z,20.38
2023-05-19T10:17:09.885Z,19.23
2023-05-19T10:19:38.845Z,20.30
2023-05-19T10:22:06.032Z,18.80
2023-05-19T10:24:32.853Z,21.80
2023-05-19T10:27:08.092Z,20.92
2023-05-19T10:29:51.145Z,19.92
2023-05-19T10:32:24.946Z,18.02
2023-05-19T10:35:16.596Z,19.30
2023-05-19T10:38:17.742Z,20.33
2023-05-19T10:41:14.346Z,20.85
2023-05-19T10:43:44.059Z,19.88
2023-05-19T10:46:11.236Z,23.30
2023-05-19T10:48:38.124Z,19.85
2023-05-19T10:51:15.997Z,17.85
2023-05-19T10:53:46.558Z,16.58
2023-05-19T10:56:34.192Z,16.63
2023-05-19T10:59:02.281Z,17.02
2023-05-19T11:01:34.343Z,17.38
2023-05-19T11:04:16.005Z,16.77
2023-05-19T11:06:51.866Z,16.20
2023-05-19T11:09:20.981Z,20.83
2023-05-19T11:11:54.225Z,17.52
2023-05-19T11:14:23.865Z,16.63
2023-05-19T11:16:53.415Z,15.70
2023-05-19T11:19:31.762Z,15.20
2023-05-19T11:22:09.921Z,16.40
2023-05-19T11:24:38.605Z,17.75
2023-05-19T11:27:25.087Z,17.45
2023-05-19T11:29:52.658Z,16.60
2023-05-19T11:32:22.337Z,16.25
2023-05-19T11:34:50.640Z,15.93
2023-05-19T11:37:17.787Z,15.85
2023-05-19T11:39:47.410Z,16.27
2023-05-19T11:42:14.587Z,16.33
2023-05-19T11:44:41.693Z,16.27
2023-05-19T11:47:09.315Z,14.95
2023-05-19T11:49:36.466Z,15.48
2023-05-19T11:52:05.049Z,15.93
2023-05-19T11:54:36.871Z,17.65
2023-05-19T11:57:04.469Z,16.45
2023-05-19T11:59:36.385Z,18.35
2023-05-19T12:02:28.070Z,16.30
2023-05-19T12:04:55.358Z,16.65
2023-05-19T12:07:26.315Z,16.17
2023-05-19T12:09:55.724Z,16.60
2023-05-19T12:12:23.387Z,16.17
2023-05-19T12:14:52.161Z,17.13
2023-05-19T12:17:20.548Z,16.75
2023-05-19T12:19:49.003Z,15.43
2023-05-19T12:22:17.431Z,15.80
2023-05-19T12:24:45.655Z,17.25
2023-05-19T12:27:20.609Z,16.77
2023-05-19T12:29:54.782Z,17.90
2023-05-19T12:32:29.223Z,17.17
2023-05-19T12:34:57.811Z,18.50
2023-05-19T12:37:28.138Z,17.08
2023-05-19T12:39:56.553Z,16.98
2023-05-19T12:42:24.725Z,17.85
2023-05-19T12:44:52.989Z,17.35
2023-05-19T12:47:21.082Z,18.02
2023-05-19T12:49:56.836Z,18.15
2023-05-19T12:52:24.487Z,18.43
2023-05-19T12:54:58.791Z,18.15
2023-05-19T12:57:26.546Z,20.02
2023-05-19T12:59:54.565Z,19.85
2023-05-19T13:02:22.173Z,19.35
2023-05-19T13:04:49.266Z,22.30
2023-05-19T13:07:17.328Z,21.25
2023-05-19T13:09:45.091Z,20.45
2023-05-19T13:12:12.221Z,19.48
2023-05-19T13:14:40.941Z,20.30
2023-05-19T13:17:07.870Z,19.65
2023-05-19T13:19:34.856Z,19.13
2023-05-19T13:22:02.003Z,20.10
2023-05-19T13:24:29.121Z,20.33
2023-05-19T13:26:56.339Z,21.25
2023-05-19T13:29:44.718Z,21.60
2023-05-19T13:32:12.400Z,20.25
2023-05-19T13:34:40.821Z,20.65
2023-05-19T13:37:10.054Z,19.67
2023-05-19T13:39:37.962Z,19.35
2023-05-19T13:42:05.206Z,20.20
2023-05-19T13:44:32.988Z,18.30
2023-05-19T13:46:59.928Z,21.17
2023-05-19T13:49:26.973Z,18.67
2023-05-19T13:51:58.514Z,22.65
2023-05-19T13:54:25.523Z,21.70
2023-05-19T13:56:52.891Z,21.60
2023-05-19T13:59:24.662Z,22.27
2023-05-19T14:01:51.647Z,21.92
2023-05-19T14:04:19.575Z,21.23
2023-05-19T14:06:46.935Z,22.50
2023-05-19T14:09:13.949Z,22.23
2023-05-19T14:11:40.894Z,22.73
2023-05-19T14:14:09.429Z,21.05
2023-05-19T14:16:38.404Z,21.58
2023-05-19T14:19:05.570Z,23.00
2023-05-19T14:21:32.981Z,20.55
2023-05-19T14:24:01.567Z,21.70
2023-05-19T14:26:29.391Z,21.30
2023-05-19T14:28:58.034Z,21.05
2023-05-19T14:31:25.124Z,21.55
2023-05-19T14:33:52.614Z,21.17
2023-05-19T14:36:19.694Z,21.58
2023-05-19T14:38:46.868Z,21.50
2023-05-19T14:41:14.026Z,22.30
2023-05-19T14:43:42.416Z,21.17
2023-05-19T14:46:09.479Z,21.45
2023-05-19T14:48:36.775Z,21.85
2023-05-19T14:51:04.348Z,22.77
2023-05-19T14:53:32.088Z,20.60
2023-05-19T14:55:58.978Z,20.60
2023-05-19T14:58:28.400Z,20.95
2023-05-19T15:00:58.263Z,19.63
2023-05-19T15:03:25.465Z,20.02
2023-05-19T15:05:52.546Z,19.63
2023-05-19T15:08:19.491Z,20.88
2023-05-19T15:10:50.198Z,19.98
2023-05-19T15:13:19.063Z,22.30
2023-05-19T15:15:46.236Z,22.65
2023-05-19T15:18:13.440Z,21.70
2023-05-19T15:20:40.574Z,21.35
2023-05-19T15:23:07.448Z,23.88
2023-05-19T15:25:34.462Z,24.08
2023-05-19T15:28:01.680Z,21.63
2023-05-19T15:30:28.833Z,24.33
2023-05-19T15:32:56.006Z,24.98
2023-05-19T15:35:25.449Z,25.50
2023-05-19T15:37:52.342Z,25.85
2023-05-19T15:40:19.410Z,25.60
2023-05-19T15:42:46.317Z,25.00
2023-05-19T15:45:13.170Z,26.73
2023-05-19T15:47:40.107Z,27.88
2023-05-19T15:50:07.752Z,27.00
2023-05-19T15:52:34.663Z,28.48
2023-05-19T15:55:01.640Z,27.77
2023-05-19T15:57:28.842Z,30.70
2023-05-19T15:59:56.750Z,30.08
2023-05-19T16:02:25.161Z,30.48
2023-05-19T16:04:52.378Z,28.25
2023-05-19T16:07:19.283Z,30.17
2023-05-19T16:09:46.209Z,32.05
2023-05-19T16:12:13.012Z,29.67
2023-05-19T16:14:39.935Z,32.17
2023-05-19T16:17:11.649Z,30.23
2023-05-19T16:19:38.882Z,29.10
2023-05-19T16:22:06.174Z,29.02
2023-05-19T16:24:33.135Z,30.35
2023-05-19T16:27:00.154Z,30.48
2023-05-19T16:29:27.016Z,29.10
2023-05-19T16:31:54.170Z,30.45
2023-05-19T16:34:21.248Z,32.53
2023-05-19T16:36:48.591Z,27.80
2023-05-19T16:39:15.811Z,29.77
2023-05-19T16:41:42.642Z,27.75
2023-05-19T16:44:09.524Z,29.73
2023-05-19T16:46:36.591Z,27.30
2023-05-19T16:54:29.095Z,29.08
2023-05-19T16:56:56.032Z,28.25
2023-05-19T17:46:22.593Z,31.30
2023-05-19T17:48:49.603Z,33.35
2023-05-19T19:54:36.918Z,42.88
2023-05-19T19:57:04.540Z,42.30
2023-05-19T19:59:31.384Z,40.55
2023-05-19T20:01:58.406Z,41.80
2023-05-19T20:04:25.465Z,44.30
2023-05-19T20:06:52.549Z,44.53
2023-05-19T20:09:19.472Z,46.08
2023-05-19T20:11:46.430Z,42.05
2023-05-19T20:14:13.837Z,43.78
2023-05-19T20:16:51.081Z,46.70
2023-05-19T20:57:35.326Z,46.42
2023-05-19T21:00:03.225Z,44.85
2023-05-19T21:13:10.785Z,42.28
2023-05-19T21:32:24.245Z,43.72
2023-05-19T21:34:51.630Z,39.97
2023-05-19T21:37:18.746Z,39.13
2023-05-19T21:42:27.737Z,41.10
2023-05-19T21:47:43.357Z,43.17
2023-05-19T21:56:09.526Z,36.50
2023-05-19T22:01:25.069Z,35.05
2023-05-19T22:03:53.535Z,31.85
2023-05-19T22:06:20.826Z,32.60
2023-05-19T22:19:35.858Z,32.22
2023-05-19T22:22:13.070Z,33.40
2023-05-19T22:27:47.293Z,33.30
2023-05-19T22:35:44.810Z,33.95
2023-05-19T22:48:52.751Z,33.83
2023-05-19T22:51:20.691Z,33.70
2023-05-19T22:53:48.860Z,33.55
2023-05-19T22:56:16.434Z,32.55
2023-05-19T22:58:43.311Z,34.28
2023-05-19T23:01:10.275Z,34.65
2023-05-19T23:03:37.344Z,34.63
2023-05-19T23:06:04.299Z,33.83
2023-05-19T23:08:31.240Z,34.25
2023-05-19T23:16:22.263Z,34.70
2023-05-19T23:27:09.139Z,34.38
2023-05-19T23:29:36.063Z,36.10
2023-05-19T23:52:50.106Z,34.38
